sensor_id;sensor_type;location;lat;lon;timestamp;pressure;altitude;pressure_sealevel;temperature;humidity
41062;BME280;26812;42.662;23.352;2023-02-07T00:01:28;96214.50;;;-1.97;54.68
41062;BME280;26812;42.662;23.352;2023-02-07T00:03:54;96216.34;;;-1.97;54.84
41062;BME280;26812;42.662;23.352;2023-02-07T00:06:38;96215.75;;;-1.99;54.73
41062;BME280;26812;42.662;23.352;2023-02-07T00:09:06;96216.78;;;-2.07;54.56
41062;BME280;26812;42.662;23.352;2023-02-07T00:11:32;96231.38;;;-1.98;55.06
41062;BME280;26812;42.662;23.352;2023-02-07T00:13:58;96205.59;;;-2.22;55.04
41062;BME280;26812;42.662;23.352;2023-02-07T00:16:24;96214.16;;;-2.13;55.03
41062;BME280;26812;42.662;23.352;2023-02-07T00:18:50;96230.38;;;-2.23;55.59
41062;BME280;26812;42.662;23.352;2023-02-07T00:21:18;96231.63;;;-2.12;55.97
41062;BME280;26812;42.662;23.352;2023-02-07T00:23:45;96241.75;;;-2.09;55.55
41062;BME280;26812;42.662;23.352;2023-02-07T00:26:11;96242.78;;;-2.10;55.96
41062;BME280;26812;42.662;23.352;2023-02-07T00:28:37;96251.72;;;-2.11;56.25
41062;BME280;26812;42.662;23.352;2023-02-07T00:33:28;96232.66;;;-2.40;56.19
41062;BME280;26812;42.662;23.352;2023-02-07T00:36:01;96250.28;;;-2.60;57.68
41062;BME280;26812;42.662;23.352;2023-02-07T00:38:27;96201.34;;;-2.76;57.96
41062;BME280;26812;42.662;23.352;2023-02-07T00:40:53;96259.25;;;-2.35;58.19
41062;BME280;26812;42.662;23.352;2023-02-07T00:43:19;96257.00;;;-2.38;57.70
41062;BME280;26812;42.662;23.352;2023-02-07T00:45:44;96257.81;;;-2.44;57.97
41062;BME280;26812;42.662;23.352;2023-02-07T00:48:10;96257.41;;;-2.54;57.92
41062;BME280;26812;42.662;23.352;2023-02-07T00:50:35;96230.81;;;-2.59;57.93
41062;BME280;26812;42.662;23.352;2023-02-07T00:53:00;96262.28;;;-2.38;57.68
41062;BME280;26812;42.662;23.352;2023-02-07T00:55:26;96248.88;;;-2.36;57.73
41062;BME280;26812;42.662;23.352;2023-02-07T00:57:51;96256.97;;;-2.18;57.34
41062;BME280;26812;42.662;23.352;2023-02-07T01:00:17;96250.28;;;-2.21;57.18
41062;BME280;26812;42.662;23.352;2023-02-07T01:02:42;96250.69;;;-2.17;57.01
41062;BME280;26812;42.662;23.352;2023-02-07T01:05:08;96216.59;;;-2.32;56.41
41062;BME280;26812;42.662;23.352;2023-02-07T01:07:33;96218.63;;;-2.27;56.85
41062;BME280;26812;42.662;23.352;2023-02-07T01:09:58;96226.13;;;-2.24;57.53
41062;BME280;26812;42.662;23.352;2023-02-07T01:12:24;96223.91;;;-2.27;57.55
41062;BME280;26812;42.662;23.352;2023-02-07T01:14:49;96230.41;;;-2.43;58.01
41062;BME280;26812;42.662;23.352;2023-02-07T01:17:15;96241.16;;;-2.25;57.34
41062;BME280;26812;42.662;23.352;2023-02-07T01:19:40;96244.59;;;-2.24;57.05
41062;BME280;26812;42.662;23.352;2023-02-07T01:22:06;96241.16;;;-2.11;56.99
41062;BME280;26812;42.662;23.352;2023-02-07T01:24:31;96225.09;;;-2.23;56.86
41062;BME280;26812;42.662;23.352;2023-02-07T01:26:59;96243.38;;;-2.15;56.92
41062;BME280;26812;42.662;23.352;2023-02-07T01:29:25;96242.97;;;-2.25;57.73
41062;BME280;26812;42.662;23.352;2023-02-07T01:31:50;96237.09;;;-2.21;57.75
41062;BME280;26812;42.662;23.352;2023-02-07T01:34:16;96220.44;;;-2.28;57.70
41062;BME280;26812;42.662;23.352;2023-02-07T01:36:42;96213.97;;;-2.32;57.58
41062;BME280;26812;42.662;23.352;2023-02-07T01:39:07;96230.16;;;-2.15;57.49
41062;BME280;26812;42.662;23.352;2023-02-07T01:41:33;96235.25;;;-2.07;57.86
41062;BME280;26812;42.662;23.352;2023-02-07T01:46:27;96230.38;;;-2.03;58.48
41062;BME280;26812;42.662;23.352;2023-02-07T01:48:54;96211.72;;;-2.48;58.38
41062;BME280;26812;42.662;23.352;2023-02-07T01:51:20;96196.28;;;-2.51;59.13
41062;BME280;26812;42.662;23.352;2023-02-07T01:53:46;96224.94;;;-2.35;59.40
41062;BME280;26812;42.662;23.352;2023-02-07T01:56:14;96235.66;;;-2.23;58.89
41062;BME280;26812;42.662;23.352;2023-02-07T01:58:41;96231.63;;;-2.52;59.25
41062;BME280;26812;42.662;23.352;2023-02-07T02:01:15;96212.13;;;-2.64;59.25
41062;BME280;26812;42.662;23.352;2023-02-07T02:03:43;96243.00;;;-2.32;59.28
41062;BME280;26812;42.662;23.352;2023-02-07T02:06:10;96235.28;;;-2.33;58.92
41062;BME280;26812;42.662;23.352;2023-02-07T02:08:37;96229.19;;;-2.27;58.69
41062;BME280;26812;42.662;23.352;2023-02-07T02:16:39;96235.25;;;-2.07;57.57
41062;BME280;26812;42.662;23.352;2023-02-07T02:32:33;96247.28;;;-2.44;59.69
41062;BME280;26812;42.662;23.352;2023-02-07T02:36:00;96249.09;;;-2.38;59.23
41062;BME280;26812;42.662;23.352;2023-02-07T02:38:15;96246.25;;;-2.30;59.70
41062;BME280;26812;42.662;23.352;2023-02-07T02:41:00;96195.91;;;-2.41;58.27
41062;BME280;26812;42.662;23.352;2023-02-07T02:43:34;96248.66;;;-2.15;57.95
41062;BME280;26812;42.662;23.352;2023-02-07T02:46:07;96252.72;;;-1.99;57.39
41062;BME280;26812;42.662;23.352;2023-02-07T02:48:34;96255.34;;;-1.99;57.35
41062;BME280;26812;42.662;23.352;2023-02-07T02:51:00;96167.50;;;-2.66;57.19
41062;BME280;26812;42.662;23.352;2023-02-07T02:53:26;96258.00;;;-2.06;57.21
41062;BME280;26812;42.662;23.352;2023-02-07T03:01:25;96265.75;;;-2.37;58.94
41062;BME280;26812;42.662;23.352;2023-02-07T03:04:02;96260.22;;;-2.69;59.75
41062;BME280;26812;42.662;23.352;2023-02-07T03:06:45;96266.09;;;-2.80;60.48
41062;BME280;26812;42.662;23.352;2023-02-07T03:20:17;96253.50;;;-2.78;59.85
41062;BME280;26812;42.662;23.352;2023-02-07T03:22:45;96265.44;;;-3.02;60.32
41062;BME280;26812;42.662;23.352;2023-02-07T03:25:14;96255.31;;;-2.98;59.34
41062;BME280;26812;42.662;23.352;2023-02-07T03:27:40;96263.63;;;-3.01;59.84
41062;BME280;26812;42.662;23.352;2023-02-07T03:30:09;96260.72;;;-3.13;60.37
41062;BME280;26812;42.662;23.352;2023-02-07T03:32:41;96240.59;;;-3.34;60.21
41062;BME280;26812;42.662;23.352;2023-02-07T03:37:46;96263.00;;;-3.03;60.20
41062;BME280;26812;42.662;23.352;2023-02-07T03:40:12;96248.72;;;-3.29;60.52
41062;BME280;26812;42.662;23.352;2023-02-07T03:42:58;96246.78;;;-3.00;60.49
41062;BME280;26812;42.662;23.352;2023-02-07T03:45:26;96257.97;;;-2.78;60.12
41062;BME280;26812;42.662;23.352;2023-02-07T03:47:52;96259.19;;;-2.88;58.85
41062;BME280;26812;42.662;23.352;2023-02-07T03:50:17;96263.22;;;-3.05;60.48
41062;BME280;26812;42.662;23.352;2023-02-07T03:52:43;96242.88;;;-3.11;60.21
41062;BME280;26812;42.662;23.352;2023-02-07T03:55:10;96252.22;;;-3.08;60.50
41062;BME280;26812;42.662;23.352;2023-02-07T03:57:36;96255.13;;;-2.90;59.74
41062;BME280;26812;42.662;23.352;2023-02-07T04:00:03;96265.25;;;-2.81;59.16
41062;BME280;26812;42.662;23.352;2023-02-07T04:02:28;96184.84;;;-3.31;59.87
41062;BME280;26812;42.662;23.352;2023-02-07T04:04:54;96254.91;;;-2.95;59.95
41062;BME280;26812;42.662;23.352;2023-02-07T04:07:19;96242.94;;;-2.98;58.96
41062;BME280;26812;42.662;23.352;2023-02-07T04:09:45;96227.84;;;-3.24;60.01
41062;BME280;26812;42.662;23.352;2023-02-07T04:12:10;96273.50;;;-3.10;60.26
41062;BME280;26812;42.662;23.352;2023-02-07T04:14:35;96246.72;;;-3.14;60.31
41062;BME280;26812;42.662;23.352;2023-02-07T04:17:01;96262.00;;;-2.96;60.01
41062;BME280;26812;42.662;23.352;2023-02-07T04:19:26;96192.91;;;-3.46;60.36
41062;BME280;26812;42.662;23.352;2023-02-07T04:21:52;96234.63;;;-2.95;59.69
41062;BME280;26812;42.662;23.352;2023-02-07T04:24:24;96253.75;;;-2.66;59.68
41062;BME280;26812;42.662;23.352;2023-02-07T04:26:50;96238.13;;;-2.74;59.42
41062;BME280;26812;42.662;23.352;2023-02-07T04:29:15;96249.47;;;-2.61;58.49
41062;BME280;26812;42.662;23.352;2023-02-07T04:31:41;96253.34;;;-2.50;58.76
41062;BME280;26812;42.662;23.352;2023-02-07T04:34:07;96258.59;;;-2.50;58.48
41062;BME280;26812;42.662;23.352;2023-02-07T04:36:34;96262.91;;;-2.42;57.70
41062;BME280;26812;42.662;23.352;2023-02-07T04:38:59;96255.34;;;-2.45;58.18
41062;BME280;26812;42.662;23.352;2023-02-07T04:41:25;96262.47;;;-2.46;58.25
41062;BME280;26812;42.662;23.352;2023-02-07T04:43:50;96270.22;;;-2.44;58.09
41062;BME280;26812;42.662;23.352;2023-02-07T04:46:16;96284.38;;;-2.45;57.74
41062;BME280;26812;42.662;23.352;2023-02-07T04:48:41;96253.72;;;-2.73;58.88
41062;BME280;26812;42.662;23.352;2023-02-07T04:51:07;96262.44;;;-2.79;58.63
41062;BME280;26812;42.662;23.352;2023-02-07T04:53:32;96247.38;;;-3.05;59.46
41062;BME280;26812;42.662;23.352;2023-02-07T04:55:58;96288.59;;;-2.84;59.92
41062;BME280;26812;42.662;23.352;2023-02-07T04:58:24;96223.81;;;-3.20;59.83
41062;BME280;26812;42.662;23.352;2023-02-07T05:00:49;96289.88;;;-2.60;59.01
41062;BME280;26812;42.662;23.352;2023-02-07T05:03:15;96296.16;;;-2.74;59.49
41062;BME280;26812;42.662;23.352;2023-02-07T05:05:41;96302.19;;;-2.81;59.69
41062;BME280;26812;42.662;23.352;2023-02-07T05:08:07;96291.03;;;-2.76;59.42
41062;BME280;26812;42.662;23.352;2023-02-07T05:10:33;96274.25;;;-2.68;58.95
41062;BME280;26812;42.662;23.352;2023-02-07T05:13:00;96287.03;;;-2.59;59.07
41062;BME280;26812;42.662;23.352;2023-02-07T05:15:26;96299.66;;;-2.41;58.51
41062;BME280;26812;42.662;23.352;2023-02-07T05:17:51;96309.41;;;-2.35;58.29
41062;BME280;26812;42.662;23.352;2023-02-07T05:20:17;96280.13;;;-2.46;57.81
41062;BME280;26812;42.662;23.352;2023-02-07T05:22:43;96287.47;;;-2.35;57.89
41062;BME280;26812;42.662;23.352;2023-02-07T05:25:09;96278.72;;;-2.49;58.42
41062;BME280;26812;42.662;23.352;2023-02-07T05:27:34;96280.16;;;-2.40;57.64
41062;BME280;26812;42.662;23.352;2023-02-07T05:30:00;96278.75;;;-2.42;58.02
41062;BME280;26812;42.662;23.352;2023-02-07T05:32:25;96287.22;;;-2.47;58.31
41062;BME280;26812;42.662;23.352;2023-02-07T05:35:09;96298.22;;;-2.24;57.60
41062;BME280;26812;42.662;23.352;2023-02-07T05:37:36;96286.03;;;-2.31;58.03
41062;BME280;26812;42.662;23.352;2023-02-07T05:40:02;96302.69;;;-2.31;57.87
41062;BME280;26812;42.662;23.352;2023-02-07T05:42:27;96266.97;;;-2.40;57.75
41062;BME280;26812;42.662;23.352;2023-02-07T05:44:53;96293.97;;;-2.31;58.19
41062;BME280;26812;42.662;23.352;2023-02-07T05:47:18;96299.03;;;-2.23;58.25
41062;BME280;26812;42.662;23.352;2023-02-07T05:49:44;96301.25;;;-2.20;57.84
41062;BME280;26812;42.662;23.352;2023-02-07T05:52:09;96318.31;;;-2.16;57.22
41062;BME280;26812;42.662;23.352;2023-02-07T05:54:34;96288.28;;;-2.35;57.55
41062;BME280;26812;42.662;23.352;2023-02-07T05:57:00;96253.34;;;-2.57;57.22
41062;BME280;26812;42.662;23.352;2023-02-07T05:59:25;96311.44;;;-2.37;57.54
41062;BME280;26812;42.662;23.352;2023-02-07T06:01:50;96340.66;;;-2.19;58.28
41062;BME280;26812;42.662;23.352;2023-02-07T06:04:16;96318.97;;;-2.07;58.49
41062;BME280;26812;42.662;23.352;2023-02-07T06:06:41;96301.47;;;-2.02;57.66
41062;BME280;26812;42.662;23.352;2023-02-07T06:09:07;96312.41;;;-1.85;57.11
41062;BME280;26812;42.662;23.352;2023-02-07T06:11:32;96282.78;;;-1.94;57.03
41062;BME280;26812;42.662;23.352;2023-02-07T06:14:05;96335.97;;;-1.64;57.06
41062;BME280;26812;42.662;23.352;2023-02-07T06:16:30;96325.41;;;-1.64;56.84
41062;BME280;26812;42.662;23.352;2023-02-07T06:18:55;96328.06;;;-1.70;56.95
41062;BME280;26812;42.662;23.352;2023-02-07T06:21:21;96342.47;;;-1.46;56.18
41062;BME280;26812;42.662;23.352;2023-02-07T06:23:46;96310.56;;;-1.65;55.95
41062;BME280;26812;42.662;23.352;2023-02-07T06:26:13;96349.81;;;-1.48;56.22
41062;BME280;26812;42.662;23.352;2023-02-07T06:28:42;96354.44;;;-1.37;55.79
41062;BME280;26812;42.662;23.352;2023-02-07T06:31:07;96325.81;;;-1.47;56.05
41062;BME280;26812;42.662;23.352;2023-02-07T06:33:33;96340.63;;;-1.39;55.98
41062;BME280;26812;42.662;23.352;2023-02-07T06:35:58;96344.06;;;-1.32;55.55
41062;BME280;26812;42.662;23.352;2023-02-07T06:38:24;96341.50;;;-1.78;56.34
41062;BME280;26812;42.662;23.352;2023-02-07T06:40:50;96325.88;;;-2.06;56.92
41062;BME280;26812;42.662;23.352;2023-02-07T06:43:15;96358.38;;;-2.12;57.11
41062;BME280;26812;42.662;23.352;2023-02-07T06:45:41;96341.72;;;-2.13;57.57
41062;BME280;26812;42.662;23.352;2023-02-07T06:48:08;96371.16;;;-2.09;57.95
41062;BME280;26812;42.662;23.352;2023-02-07T06:50:34;96341.69;;;-2.33;58.00
41062;BME280;26812;42.662;23.352;2023-02-07T06:53:00;96360.78;;;-2.31;57.94
41062;BME280;26812;42.662;23.352;2023-02-07T06:55:30;96368.31;;;-1.95;57.73
41062;BME280;26812;42.662;23.352;2023-02-07T06:57:56;96369.72;;;-1.66;57.13
41062;BME280;26812;42.662;23.352;2023-02-07T07:00:22;96366.69;;;-1.96;57.17
41062;BME280;26812;42.662;23.352;2023-02-07T07:02:48;96335.22;;;-2.10;58.30
41062;BME280;26812;42.662;23.352;2023-02-07T07:05:14;96374.19;;;-1.60;57.34
41062;BME280;26812;42.662;23.352;2023-02-07T07:07:39;96352.88;;;-1.84;56.50
41062;BME280;26812;42.662;23.352;2023-02-07T07:10:05;96383.16;;;-1.67;56.79
41062;BME280;26812;42.662;23.352;2023-02-07T07:12:31;96372.97;;;-1.64;57.00
41062;BME280;26812;42.662;23.352;2023-02-07T07:14:57;96345.56;;;-1.69;56.47
41062;BME280;26812;42.662;23.352;2023-02-07T07:17:22;96377.41;;;-1.18;55.03
41062;BME280;26812;42.662;23.352;2023-02-07T07:19:48;96362.53;;;-1.26;55.30
41062;BME280;26812;42.662;23.352;2023-02-07T07:22:13;96371.19;;;-0.92;54.32
41062;BME280;26812;42.662;23.352;2023-02-07T07:24:39;96347.91;;;-1.28;54.01
41062;BME280;26812;42.662;23.352;2023-02-07T07:27:04;96359.63;;;-0.98;52.69
41062;BME280;26812;42.662;23.352;2023-02-07T07:29:29;96369.31;;;-0.78;53.06
41062;BME280;26812;42.662;23.352;2023-02-07T07:31:55;96370.09;;;-0.71;52.09
41062;BME280;26812;42.662;23.352;2023-02-07T07:34:20;96340.13;;;-0.65;51.11
41062;BME280;26812;42.662;23.352;2023-02-07T07:36:45;96357.81;;;-1.04;51.53
41062;BME280;26812;42.662;23.352;2023-02-07T07:39:11;96365.94;;;-0.99;52.63
41062;BME280;26812;42.662;23.352;2023-02-07T07:41:37;96329.94;;;-0.62;50.82
41062;BME280;26812;42.662;23.352;2023-02-07T07:44:02;96347.50;;;-0.74;51.71
41062;BME280;26812;42.662;23.352;2023-02-07T07:46:28;96338.91;;;-0.63;51.83
41062;BME280;26812;42.662;23.352;2023-02-07T07:48:53;96344.25;;;-0.06;49.82
41062;BME280;26812;42.662;23.352;2023-02-07T07:51:19;96317.41;;;0.77;48.38
41062;BME280;26812;42.662;23.352;2023-02-07T07:53:44;96359.88;;;0.95;47.15
41062;BME280;26812;42.662;23.352;2023-02-07T07:56:10;96364.69;;;1.53;45.73
41062;BME280;26812;42.662;23.352;2023-02-07T07:58:35;96326.84;;;1.58;46.59
41062;BME280;26812;42.662;23.352;2023-02-07T08:01:01;96332.56;;;2.26;44.68
41062;BME280;26812;42.662;23.352;2023-02-07T08:03:27;96298.53;;;4.51;39.75
41062;BME280;26812;42.662;23.352;2023-02-07T08:05:53;96303.94;;;5.60;36.94
41062;BME280;26812;42.662;23.352;2023-02-07T08:08:19;96351.03;;;7.84;33.10
41062;BME280;26812;42.662;23.352;2023-02-07T08:10:45;96351.38;;;8.07;31.69
41062;BME280;26812;42.662;23.352;2023-02-07T08:13:11;96323.19;;;8.15;30.88
41062;BME280;26812;42.662;23.352;2023-02-07T08:15:37;96349.31;;;9.71;28.98
41062;BME280;26812;42.662;23.352;2023-02-07T08:18:03;96351.72;;;6.59;33.23
41062;BME280;26812;42.662;23.352;2023-02-07T08:20:29;96342.69;;;7.70;32.34
41062;BME280;26812;42.662;23.352;2023-02-07T08:22:54;96360.25;;;7.40;32.87
41062;BME280;26812;42.662;23.352;2023-02-07T08:25:21;96364.72;;;7.25;31.68
41062;BME280;26812;42.662;23.352;2023-02-07T08:27:47;96339.47;;;6.73;31.92
41062;BME280;26812;42.662;23.352;2023-02-07T08:30:13;96347.16;;;7.02;32.75
41062;BME280;26812;42.662;23.352;2023-02-07T08:32:40;96325.06;;;8.09;30.92
41062;BME280;26812;42.662;23.352;2023-02-07T08:35:06;96355.63;;;10.00;28.38
41062;BME280;26812;42.662;23.352;2023-02-07T08:37:32;96340.06;;;9.92;27.95
41062;BME280;26812;42.662;23.352;2023-02-07T08:39:57;96335.63;;;9.62;28.17
41062;BME280;26812;42.662;23.352;2023-02-07T08:42:23;96349.00;;;8.77;28.68
41062;BME280;26812;42.662;23.352;2023-02-07T08:44:49;96329.69;;;8.60;28.89
41062;BME280;26812;42.662;23.352;2023-02-07T08:47:15;96346.94;;;6.34;32.09
41062;BME280;26812;42.662;23.352;2023-02-07T08:49:41;96344.34;;;7.24;31.84
41062;BME280;26812;42.662;23.352;2023-02-07T08:52:07;96352.03;;;7.62;31.23
41062;BME280;26812;42.662;23.352;2023-02-07T08:54:33;96360.41;;;7.81;30.78
41062;BME280;26812;42.662;23.352;2023-02-07T08:56:58;96341.34;;;5.82;33.67
41062;BME280;26812;42.662;23.352;2023-02-07T08:59:24;96352.22;;;6.24;33.99
41062;BME280;26812;42.662;23.352;2023-02-07T09:01:49;96344.84;;;4.95;36.86
41062;BME280;26812;42.662;23.352;2023-02-07T09:04:14;96356.75;;;3.35;38.51
41062;BME280;26812;42.662;23.352;2023-02-07T09:06:40;96340.34;;;1.98;40.81
41062;BME280;26812;42.662;23.352;2023-02-07T09:09:06;96351.19;;;2.85;40.76
41062;BME280;26812;42.662;23.352;2023-02-07T09:11:31;96364.50;;;3.48;40.93
41062;BME280;26812;42.662;23.352;2023-02-07T09:13:57;96355.31;;;3.84;37.68
41062;BME280;26812;42.662;23.352;2023-02-07T09:16:22;96325.13;;;3.10;39.39
41062;BME280;26812;42.662;23.352;2023-02-07T09:18:49;96361.44;;;3.56;39.93
41062;BME280;26812;42.662;23.352;2023-02-07T09:21:16;96368.81;;;3.94;39.99
41062;BME280;26812;42.662;23.352;2023-02-07T09:23:42;96366.88;;;4.68;37.82
41062;BME280;26812;42.662;23.352;2023-02-07T09:26:08;96371.38;;;4.18;37.76
41062;BME280;26812;42.662;23.352;2023-02-07T09:28:34;96350.19;;;5.17;37.54
41062;BME280;26812;42.662;23.352;2023-02-07T09:31:06;96318.56;;;6.33;34.23
41062;BME280;26812;42.662;23.352;2023-02-07T09:33:32;96361.41;;;7.65;31.60
41062;BME280;26812;42.662;23.352;2023-02-07T09:35:58;96353.41;;;6.38;32.30
41062;BME280;26812;42.662;23.352;2023-02-07T09:38:23;96362.38;;;8.26;30.26
41062;BME280;26812;42.662;23.352;2023-02-07T09:40:53;96332.97;;;10.06;28.15
41062;BME280;26812;42.662;23.352;2023-02-07T09:43:46;96352.44;;;10.76;26.69
41062;BME280;26812;42.662;23.352;2023-02-07T09:46:24;96316.13;;;9.90;27.17
41062;BME280;26812;42.662;23.352;2023-02-07T09:51:47;96317.25;;;5.11;33.56
41062;BME280;26812;42.662;23.352;2023-02-07T09:54:24;96233.66;;;2.64;37.89
41062;BME280;26812;42.662;23.352;2023-02-07T09:56:51;96248.59;;;2.07;39.78
41062;BME280;26812;42.662;23.352;2023-02-07T09:59:41;96328.63;;;4.13;38.21
41062;BME280;26812;42.662;23.352;2023-02-07T10:02:22;96328.41;;;3.29;40.70
41062;BME280;26812;42.662;23.352;2023-02-07T10:04:50;96315.59;;;4.66;39.44
41062;BME280;26812;42.662;23.352;2023-02-07T10:07:17;96306.47;;;7.67;33.86
41062;BME280;26812;42.662;23.352;2023-02-07T10:09:43;96309.16;;;9.25;30.40
41062;BME280;26812;42.662;23.352;2023-02-07T10:25:35;96292.81;;;4.81;36.55
41062;BME280;26812;42.662;23.352;2023-02-07T10:30:39;96289.22;;;3.13;41.29
41062;BME280;26812;42.662;23.352;2023-02-07T10:33:13;96302.22;;;2.74;42.23
41062;BME280;26812;42.662;23.352;2023-02-07T10:35:39;96286.97;;;1.88;44.22
41062;BME280;26812;42.662;23.352;2023-02-07T10:38:19;96289.47;;;1.82;43.95
41062;BME280;26812;42.662;23.352;2023-02-07T10:43:55;96286.41;;;1.55;45.56
41062;BME280;26812;42.662;23.352;2023-02-07T10:46:21;96294.72;;;2.12;45.14
41062;BME280;26812;42.662;23.352;2023-02-07T10:48:47;96291.50;;;2.34;43.66
41062;BME280;26812;42.662;23.352;2023-02-07T10:51:21;96283.31;;;3.10;43.13
41062;BME280;26812;42.662;23.352;2023-02-07T10:53:59;96259.34;;;3.39;40.15
41062;BME280;26812;42.662;23.352;2023-02-07T10:56:27;96258.22;;;4.30;39.86
41062;BME280;26812;42.662;23.352;2023-02-07T10:58:55;96278.53;;;5.57;37.80
41062;BME280;26812;42.662;23.352;2023-02-07T11:01:23;96250.94;;;6.11;35.92
41062;BME280;26812;42.662;23.352;2023-02-07T11:03:49;96272.94;;;6.13;35.55
41062;BME280;26812;42.662;23.352;2023-02-07T11:06:24;96267.25;;;4.46;37.26
41062;BME280;26812;42.662;23.352;2023-02-07T11:09:32;96260.53;;;5.26;36.10
41062;BME280;26812;42.662;23.352;2023-02-07T11:12:12;96255.47;;;3.92;37.40
41062;BME280;26812;42.662;23.352;2023-02-07T11:14:38;96263.03;;;2.11;40.10
41062;BME280;26812;42.662;23.352;2023-02-07T11:17:04;96249.25;;;1.79;42.24
41062;BME280;26812;42.662;23.352;2023-02-07T11:19:30;96253.09;;;2.06;41.53
41062;BME280;26812;42.662;23.352;2023-02-07T11:22:13;96263.75;;;2.53;40.80
41062;BME280;26812;42.662;23.352;2023-02-07T11:24:42;96240.50;;;4.24;36.61
41062;BME280;26812;42.662;23.352;2023-02-07T11:27:19;96238.47;;;3.64;37.12
41062;BME280;26812;42.662;23.352;2023-02-07T11:29:57;96254.13;;;3.61;39.22
41062;BME280;26812;42.662;23.352;2023-02-07T11:32:25;96247.88;;;4.00;37.27
41062;BME280;26812;42.662;23.352;2023-02-07T11:34:53;96232.66;;;4.18;37.00
41062;BME280;26812;42.662;23.352;2023-02-07T11:39:50;96216.59;;;3.62;38.51
41062;BME280;26812;42.662;23.352;2023-02-07T11:42:20;96235.50;;;2.64;39.65
41062;BME280;26812;42.662;23.352;2023-02-07T11:44:46;96215.41;;;1.74;41.04
41062;BME280;26812;42.662;23.352;2023-02-07T11:47:16;96237.97;;;1.42;41.96
41062;BME280;26812;42.662;23.352;2023-02-07T11:49:53;96212.53;;;0.92;43.96
41062;BME280;26812;42.662;23.352;2023-02-07T11:52:20;96189.66;;;0.07;46.88
41062;BME280;26812;42.662;23.352;2023-02-07T11:54:58;96240.75;;;1.05;44.82
41062;BME280;26812;42.662;23.352;2023-02-07T11:57:28;96238.63;;;1.26;43.72
41062;BME280;26812;42.662;23.352;2023-02-07T12:00:17;96229.31;;;1.05;43.88
41062;BME280;26812;42.662;23.352;2023-02-07T12:02:50;96188.38;;;1.12;43.63
41062;BME280;26812;42.662;23.352;2023-02-07T12:05:20;96235.63;;;1.64;42.59
41062;BME280;26812;42.662;23.352;2023-02-07T12:07:49;96231.22;;;1.81;42.18
41062;BME280;26812;42.662;23.352;2023-02-07T12:10:28;96229.88;;;1.90;41.76
41062;BME280;26812;42.662;23.352;2023-02-07T12:12:56;96230.69;;;1.91;43.75
41062;BME280;26812;42.662;23.352;2023-02-07T12:15:41;96219.72;;;2.22;42.74
41062;BME280;26812;42.662;23.352;2023-02-07T12:23:54;96230.34;;;5.04;36.16
41062;BME280;26812;42.662;23.352;2023-02-07T12:37:19;96229.13;;;5.92;34.15
41062;BME280;26812;42.662;23.352;2023-02-07T12:42:39;96167.91;;;8.73;29.00
41062;BME280;26812;42.662;23.352;2023-02-07T12:45:17;96223.38;;;9.13;28.84
41062;BME280;26812;42.662;23.352;2023-02-07T12:48:19;96223.75;;;8.96;28.91
41062;BME280;26812;42.662;23.352;2023-02-07T12:56:11;96219.53;;;10.52;26.24
41062;BME280;26812;42.662;23.352;2023-02-07T12:58:54;96209.16;;;9.62;27.39
41062;BME280;26812;42.662;23.352;2023-02-07T13:09:32;96186.72;;;4.93;35.42
41062;BME280;26812;42.662;23.352;2023-02-07T13:12:16;96214.28;;;5.79;34.11
41062;BME280;26812;42.662;23.352;2023-02-07T13:20:30;96210.69;;;4.66;34.97
41062;BME280;26812;42.662;23.352;2023-02-07T13:23:03;96210.75;;;5.47;34.65
41062;BME280;26812;42.662;23.352;2023-02-07T13:25:39;96215.78;;;4.51;37.22
41062;BME280;26812;42.662;23.352;2023-02-07T13:30:56;96207.94;;;4.83;35.36
41062;BME280;26812;42.662;23.352;2023-02-07T13:33:33;96215.94;;;5.05;35.86
41062;BME280;26812;42.662;23.352;2023-02-07T13:36:12;96207.81;;;4.94;36.07
41062;BME280;26812;42.662;23.352;2023-02-07T13:38:58;96198.31;;;5.30;35.78
41062;BME280;26812;42.662;23.352;2023-02-07T13:44:18;96198.13;;;3.72;38.50
41062;BME280;26812;42.662;23.352;2023-02-07T13:52:54;96209.47;;;4.57;37.76
41062;BME280;26812;42.662;23.352;2023-02-07T13:55:36;96208.34;;;6.41;34.95
41062;BME280;26812;42.662;23.352;2023-02-07T13:58:04;96194.84;;;8.48;29.75
41062;BME280;26812;42.662;23.352;2023-02-07T14:03:23;96198.91;;;9.15;28.66
41062;BME280;26812;42.662;23.352;2023-02-07T14:05:52;96192.41;;;8.61;29.43
41062;BME280;26812;42.662;23.352;2023-02-07T14:10:50;96188.47;;;3.38;37.25
41062;BME280;26812;42.662;23.352;2023-02-07T14:15:55;96199.47;;;3.13;39.41
41062;BME280;26812;42.662;23.352;2023-02-07T14:21:19;96154.41;;;2.95;38.98
41062;BME280;26812;42.662;23.352;2023-02-07T14:24:01;96203.91;;;3.07;40.04
41062;BME280;26812;42.662;23.352;2023-02-07T14:40:48;96210.81;;;1.93;42.92
41062;BME280;26812;42.662;23.352;2023-02-07T14:43:28;96194.97;;;2.10;42.08
41062;BME280;26812;42.662;23.352;2023-02-07T14:46:08;96205.84;;;1.97;44.17
41062;BME280;26812;42.662;23.352;2023-02-07T14:51:01;96196.66;;;1.46;45.01
41062;BME280;26812;42.662;23.352;2023-02-07T14:53:28;96185.16;;;1.22;45.30
41062;BME280;26812;42.662;23.352;2023-02-07T14:55:59;96196.09;;;1.55;43.81
41062;BME280;26812;42.662;23.352;2023-02-07T14:58:39;96213.72;;;1.38;45.72
41062;BME280;26812;42.662;23.352;2023-02-07T15:01:13;96134.53;;;0.15;46.51
41062;BME280;26812;42.662;23.352;2023-02-07T15:03:41;96152.91;;;0.47;46.75
41062;BME280;26812;42.662;23.352;2023-02-07T15:06:18;96149.25;;;0.78;45.69
41062;BME280;26812;42.662;23.352;2023-02-07T15:08:58;96175.16;;;1.24;45.34
41062;BME280;26812;42.662;23.352;2023-02-07T15:11:26;96189.88;;;1.20;45.80
41062;BME280;26812;42.662;23.352;2023-02-07T15:13:57;96198.16;;;0.82;46.71
41062;BME280;26812;42.662;23.352;2023-02-07T15:16:25;96224.06;;;0.68;46.92
41062;BME280;26812;42.662;23.352;2023-02-07T15:19:06;96221.25;;;0.81;46.36
41062;BME280;26812;42.662;23.352;2023-02-07T15:21:39;96223.28;;;0.98;46.90
41062;BME280;26812;42.662;23.352;2023-02-07T15:24:13;96217.13;;;0.67;47.09
41062;BME280;26812;42.662;23.352;2023-02-07T15:26:41;96186.78;;;0.63;46.88
41062;BME280;26812;42.662;23.352;2023-02-07T15:29:18;96217.13;;;0.49;48.18